DRRB weather

Birni-N'Konni Airport
Birni-N'Konni, Tahoua Region, Niger

Public forecast

Using degrees Celsius for public forecast. Weather courtesy of forecast.io.

METAR (pilot weather report)

Report is more than 6 hours old.

Retrieved 2019/04/08 18:00 UTC (16 days ago):

DRRB 081800Z 26004KT CAVOK 39/09 Q////

TAF (pilot weather forecast)

Forecast is more than 12 hours old.

Closest forecast is Sadiq Abubakar III International Airport, 53.2 nm (98.5 km) S. Retrieved 2019/04/23 06:21 UTC (2 days ago):

TAF DNSO 230330Z 2306/2412 12010KT CAVOK